createdAt,value
2022-11-19T00:01:03.322Z,4.45
2022-11-19T00:03:32.514Z,4.57
2022-11-19T00:06:04.460Z,5.43
2022-11-19T00:08:31.073Z,5.70
2022-11-19T00:11:08.232Z,5.77
2022-11-19T00:13:36.821Z,5.43
2022-11-19T00:16:11.392Z,5.55
2022-11-19T00:18:38.002Z,4.97
2022-11-19T00:21:07.233Z,4.30
2022-11-19T00:23:33.829Z,3.40
2022-11-19T00:26:18.425Z,3.25
2022-11-19T00:28:44.917Z,3.97
2022-11-19T00:31:13.484Z,5.32
2022-11-19T00:33:41.533Z,4.90
2022-11-19T00:36:11.780Z,4.77
2022-11-19T00:38:38.124Z,3.97
2022-11-19T00:41:05.269Z,3.65
2022-11-19T00:43:47.119Z,3.28
2022-11-19T00:46:14.686Z,3.72
2022-11-19T00:48:41.325Z,3.00
2022-11-19T00:51:09.260Z,3.00
2022-11-19T00:53:36.380Z,2.42
2022-11-19T00:56:04.777Z,2.90
2022-11-19T00:58:31.573Z,2.40
2022-11-19T01:00:58.009Z,2.90
2022-11-19T01:03:25.095Z,2.88
2022-11-19T01:05:51.867Z,2.65
2022-11-19T01:08:18.783Z,2.38
2022-11-19T01:10:46.045Z,2.45
2022-11-19T01:13:31.355Z,2.60
2022-11-19T01:15:57.936Z,2.50
2022-11-19T01:18:24.465Z,2.83
2022-11-19T01:20:51.058Z,2.90
2022-11-19T01:23:17.480Z,2.80
2022-11-19T01:25:44.149Z,2.70
2022-11-19T01:28:10.992Z,2.85
2022-11-19T01:30:40.961Z,3.05
2022-11-19T01:33:07.941Z,3.17
2022-11-19T01:35:34.898Z,4.65
2022-11-19T01:38:03.209Z,4.43
2022-11-19T01:40:30.305Z,4.00
2022-11-19T01:42:57.046Z,3.70
2022-11-19T01:45:32.655Z,4.65
2022-11-19T01:48:27.300Z,6.38
2022-11-19T01:50:55.869Z,6.70
2022-11-19T01:53:26.238Z,6.65
2022-11-19T01:55:53.017Z,5.68
2022-11-19T01:58:22.441Z,5.40
2022-11-19T02:00:49.012Z,4.63
2022-11-19T02:03:17.130Z,4.57
2022-11-19T02:05:43.986Z,4.22
2022-11-19T02:08:35.874Z,4.10
2022-11-19T02:11:11.558Z,4.40
2022-11-19T02:13:43.977Z,4.22
2022-11-19T02:16:19.532Z,4.33
2022-11-19T02:18:53.377Z,3.70
2022-11-19T02:21:42.840Z,3.88
2022-11-19T02:24:39.925Z,4.00
2022-11-19T02:27:44.223Z,3.72
2022-11-19T02:30:14.052Z,3.87
2022-11-19T02:32:55.045Z,3.50
2022-11-19T02:35:47.077Z,3.65
2022-11-19T02:38:37.721Z,4.05
2022-11-19T02:41:33.794Z,3.15
2022-11-19T02:44:27.184Z,3.67
2022-11-19T02:46:55.616Z,3.50
2022-11-19T02:49:26.214Z,3.72
2022-11-19T02:51:52.900Z,2.78
2022-11-19T02:54:19.502Z,2.90
2022-11-19T02:56:54.761Z,3.33
2022-11-19T02:59:50.001Z,3.00
2022-11-19T03:02:36.787Z,3.10
2022-11-19T03:05:07.401Z,2.80
2022-11-19T03:07:34.095Z,3.08
2022-11-19T03:10:05.087Z,2.93
2022-11-19T03:12:54.350Z,2.92
2022-11-19T03:16:05.839Z,2.92
2022-11-19T03:18:36.959Z,2.70
2022-11-19T03:21:29.447Z,2.72
2022-11-19T03:24:06.209Z,2.27
2022-11-19T03:26:41.589Z,2.33
2022-11-19T03:29:12.736Z,2.40
2022-11-19T03:31:43.621Z,2.47
2022-11-19T03:34:18.011Z,2.47
2022-11-19T03:36:48.070Z,2.67
2022-11-19T03:39:18.324Z,2.45
2022-11-19T03:41:48.624Z,2.40
2022-11-19T03:44:36.814Z,2.13
2022-11-19T03:47:10.765Z,2.40
2022-11-19T03:49:41.837Z,2.50
2022-11-19T03:52:17.854Z,2.38
2022-11-19T03:54:44.760Z,3.13
2022-11-19T03:57:15.046Z,2.78
2022-11-19T03:59:41.734Z,3.20
2022-11-19T04:02:10.622Z,3.40
2022-11-19T04:04:38.734Z,3.28
2022-11-19T04:07:05.288Z,3.60
2022-11-19T04:09:32.204Z,2.85
2022-11-19T04:11:58.670Z,1.10
2022-11-19T04:14:25.202Z,0.53
2022-11-19T04:16:51.689Z,0.40
2022-11-19T04:19:18.449Z,0.40
2022-11-19T04:21:45.276Z,0.45
2022-11-19T04:24:12.103Z,0.73
2022-11-19T04:26:38.619Z,0.70
2022-11-19T04:29:04.940Z,0.65
2022-11-19T04:31:31.309Z,0.65
2022-11-19T04:33:57.790Z,0.90
2022-11-19T04:36:24.329Z,0.50
2022-11-19T04:38:50.999Z,0.67
2022-11-19T04:41:17.470Z,0.40
2022-11-19T04:43:43.955Z,0.60
2022-11-19T04:46:10.450Z,0.95
2022-11-19T04:48:36.948Z,0.90
2022-11-19T04:51:03.505Z,0.80
2022-11-19T04:53:29.827Z,1.20
2022-11-19T04:55:56.347Z,0.90
2022-11-19T04:58:22.678Z,0.80
2022-11-19T05:00:49.178Z,1.48
2022-11-19T05:03:15.680Z,0.70
2022-11-19T05:05:42.190Z,0.70
2022-11-19T05:08:08.768Z,0.88
2022-11-19T05:10:35.246Z,0.80
2022-11-19T05:13:01.729Z,1.10
2022-11-19T05:15:28.210Z,1.33
2022-11-19T05:17:54.732Z,0.70
2022-11-19T05:20:21.231Z,0.93
2022-11-19T05:22:47.731Z,0.47
2022-11-19T05:25:14.288Z,0.73
2022-11-19T05:27:40.653Z,0.90
2022-11-19T05:30:07.938Z,0.77
2022-11-19T05:32:36.867Z,0.90
2022-11-19T05:35:04.326Z,1.00
2022-11-19T05:37:30.873Z,0.75
2022-11-19T05:39:57.319Z,0.80
2022-11-19T05:42:23.992Z,0.70
2022-11-19T05:44:50.471Z,0.60
2022-11-19T05:47:17.382Z,0.57
2022-11-19T05:49:43.774Z,0.50
2022-11-19T05:52:11.185Z,0.50
2022-11-19T05:54:37.485Z,0.40
2022-11-19T05:57:05.708Z,0.98
2022-11-19T05:59:32.982Z,0.70
2022-11-19T06:01:59.375Z,0.73
2022-11-19T06:04:25.723Z,1.00
2022-11-19T06:06:52.087Z,0.93
2022-11-19T06:09:18.848Z,1.02
2022-11-19T06:11:48.246Z,1.15
2022-11-19T06:14:15.175Z,1.08
2022-11-19T06:16:41.824Z,1.17
2022-11-19T06:19:08.411Z,0.90
2022-11-19T06:21:34.933Z,1.30
2022-11-19T06:24:01.491Z,0.80
2022-11-19T06:26:29.533Z,1.13
2022-11-19T06:28:56.055Z,1.30
2022-11-19T06:31:23.179Z,1.60
2022-11-19T06:33:53.540Z,1.20
2022-11-19T06:36:21.229Z,1.33
2022-11-19T06:38:48.001Z,1.80
2022-11-19T06:41:14.609Z,2.00
2022-11-19T06:43:41.507Z,1.65
2022-11-19T06:46:08.025Z,1.90
2022-11-19T06:48:34.609Z,2.00
2022-11-19T06:51:04.096Z,2.60
2022-11-19T06:53:31.308Z,1.97
2022-11-19T06:55:58.950Z,2.65
2022-11-19T06:58:25.938Z,4.32
2022-11-19T07:00:52.516Z,3.05
2022-11-19T07:03:19.059Z,2.33
2022-11-19T07:05:48.271Z,2.40
2022-11-19T07:08:15.634Z,2.67
2022-11-19T07:10:43.244Z,2.90
2022-11-19T07:13:09.890Z,2.63
2022-11-19T07:15:36.269Z,2.90
2022-11-19T07:18:02.901Z,2.80
2022-11-19T07:20:29.647Z,2.97
2022-11-19T07:22:59.192Z,4.78
2022-11-19T07:25:25.985Z,2.78
2022-11-19T07:27:52.599Z,2.33
2022-11-19T07:30:19.145Z,2.20
2022-11-19T07:32:45.593Z,2.40
2022-11-19T07:35:12.510Z,3.17
2022-11-19T07:37:39.228Z,3.10
2022-11-19T07:40:06.570Z,3.70
2022-11-19T07:42:51.712Z,3.50
2022-11-19T07:45:20.331Z,3.15
2022-11-19T07:47:47.046Z,3.00
2022-11-19T07:50:13.744Z,3.30
2022-11-19T07:52:40.090Z,3.30
2022-11-19T07:55:07.438Z,2.60
2022-11-19T07:57:33.854Z,3.00
2022-11-19T08:00:00.373Z,3.45
2022-11-19T08:02:27.031Z,3.58
2022-11-19T08:04:53.604Z,3.70
2022-11-19T08:07:20.204Z,3.67
2022-11-19T08:09:46.564Z,4.60
2022-11-19T08:12:13.095Z,4.43
2022-11-19T08:14:39.571Z,6.10
2022-11-19T08:17:24.645Z,5.25
2022-11-19T08:19:51.114Z,5.27
2022-11-19T08:22:17.670Z,5.35
2022-11-19T08:24:44.589Z,5.38
2022-11-19T08:27:11.151Z,5.95
2022-11-19T08:29:37.477Z,5.50
2022-11-19T08:32:04.006Z,5.83
2022-11-19T08:34:32.244Z,5.80
2022-11-19T08:36:58.788Z,5.32
2022-11-19T08:39:25.310Z,5.30
2022-11-19T08:42:10.335Z,5.55
2022-11-19T08:44:36.829Z,6.33
2022-11-19T08:47:03.174Z,6.55
2022-11-19T08:49:29.752Z,6.40
2022-11-19T08:51:57.527Z,6.63
2022-11-19T08:54:24.153Z,6.50
2022-11-19T08:56:50.869Z,6.25
2022-11-19T08:59:17.664Z,6.20
2022-11-19T09:01:44.137Z,6.15
2022-11-19T09:04:10.449Z,6.32
2022-11-19T09:06:37.106Z,5.30
2022-11-19T09:09:04.454Z,6.30
2022-11-19T09:11:30.829Z,6.55
2022-11-19T09:13:57.818Z,6.68
2022-11-19T09:16:24.376Z,6.53
2022-11-19T09:18:50.765Z,6.95
2022-11-19T09:21:17.261Z,17.23
2022-11-19T09:23:43.948Z,13.55
2022-11-19T09:26:15.929Z,16.52
2022-11-19T09:28:42.937Z,11.50
2022-11-19T09:31:10.745Z,8.30
2022-11-19T09:33:39.365Z,7.90
2022-11-19T09:36:06.498Z,7.00
2022-11-19T09:38:35.015Z,17.27
2022-11-19T09:41:18.916Z,7.82
2022-11-19T09:43:57.352Z,8.25
2022-11-19T09:46:44.059Z,9.07
2022-11-19T09:49:25.201Z,7.65
2022-11-19T09:51:58.549Z,7.03
2022-11-19T09:54:26.281Z,12.75
2022-11-19T09:56:58.060Z,11.02
2022-11-19T09:59:33.496Z,7.40
2022-11-19T10:01:59.793Z,7.85
2022-11-19T10:04:31.137Z,8.30
2022-11-19T10:07:19.004Z,10.15
2022-11-19T10:10:14.830Z,8.18
2022-11-19T10:12:52.370Z,7.90
2022-11-19T10:15:37.622Z,8.20
2022-11-19T10:18:26.188Z,8.38
2022-11-19T10:21:14.381Z,8.95
2022-11-19T10:23:49.973Z,9.15
2022-11-19T10:26:18.982Z,7.80
2022-11-19T10:28:54.033Z,7.70
2022-11-19T10:31:43.462Z,7.97
2022-11-19T10:34:37.492Z,7.80
2022-11-19T10:37:11.147Z,8.25
2022-11-19T10:39:43.589Z,9.55
2022-11-19T10:42:22.666Z,8.32
2022-11-19T10:45:01.473Z,8.38
2022-11-19T10:47:37.137Z,9.13
2022-11-19T10:50:09.877Z,9.13
2022-11-19T10:52:44.073Z,9.15
2022-11-19T10:55:19.514Z,9.20
2022-11-19T10:57:48.289Z,8.20
2022-11-19T11:00:17.382Z,8.98
2022-11-19T11:02:57.233Z,10.73
2022-11-19T11:05:23.715Z,9.55
2022-11-19T11:07:58.872Z,8.18
2022-11-19T11:10:32.327Z,8.95
2022-11-19T11:13:26.115Z,8.05
2022-11-19T11:15:54.254Z,9.75
2022-11-19T11:18:26.792Z,9.60
2022-11-19T11:20:53.598Z,9.57
2022-11-19T11:23:28.785Z,10.40
2022-11-19T11:26:08.506Z,10.50
2022-11-19T11:28:35.442Z,10.35
2022-11-19T11:31:05.753Z,9.73
2022-11-19T11:33:54.019Z,9.80
2022-11-19T11:36:25.929Z,10.75
2022-11-19T11:38:55.393Z,9.77
2022-11-19T11:44:22.477Z,10.40
2022-11-19T11:46:51.245Z,9.85
2022-11-19T11:49:35.291Z,10.30
2022-11-19T11:52:17.277Z,11.23
2022-11-19T11:54:57.175Z,9.43
2022-11-19T11:57:26.720Z,11.20
2022-11-19T11:59:53.147Z,10.77
2022-11-19T12:02:32.794Z,11.32
2022-11-19T12:05:02.563Z,10.80
2022-11-19T12:07:55.308Z,11.05
2022-11-19T12:10:40.465Z,11.70
2022-11-19T12:13:38.062Z,12.52
2022-11-19T12:16:19.122Z,17.63
2022-11-19T12:19:04.488Z,10.98
2022-11-19T12:22:03.441Z,14.27
2022-11-19T12:24:38.897Z,14.30
2022-11-19T12:27:27.095Z,16.33
2022-11-19T12:30:06.209Z,11.98
2022-11-19T12:32:50.699Z,11.82
2022-11-19T12:35:36.474Z,12.07
2022-11-19T12:38:24.603Z,13.93
2022-11-19T12:41:00.440Z,12.68
2022-11-19T12:43:55.482Z,10.75
2022-11-19T12:46:40.518Z,11.18
2022-11-19T12:49:19.416Z,11.55
2022-11-19T12:52:14.151Z,11.93
2022-11-19T12:54:59.346Z,11.80
2022-11-19T12:57:41.086Z,12.23
2022-11-19T13:00:29.200Z,11.85
2022-11-19T13:03:04.553Z,11.82
2022-11-19T13:05:53.182Z,12.90
2022-11-19T13:08:31.316Z,12.52
2022-11-19T13:11:10.816Z,14.48
2022-11-19T13:13:41.936Z,12.98
2022-11-19T13:16:21.527Z,12.38
2022-11-19T13:18:52.899Z,12.35
2022-11-19T13:21:30.754Z,11.60
2022-11-19T13:24:03.574Z,14.82
2022-11-19T13:26:33.038Z,14.13
2022-11-19T13:29:28.561Z,14.13
2022-11-19T13:32:03.512Z,13.73
2022-11-19T13:34:49.528Z,13.45
2022-11-19T13:37:45.573Z,13.20
2022-11-19T13:40:21.068Z,12.55
2022-11-19T13:46:13.169Z,12.90
2022-11-19T13:48:55.378Z,11.60
2022-11-19T13:51:24.856Z,12.27
2022-11-19T13:53:51.968Z,12.10
2022-11-19T13:56:20.038Z,14.82
2022-11-19T13:58:52.958Z,14.90
2022-11-19T14:01:26.396Z,14.00
2022-11-19T14:03:55.832Z,14.73
2022-11-19T14:06:30.919Z,13.68
2022-11-19T14:09:25.808Z,12.68
2022-11-19T14:12:15.742Z,13.07
2022-11-19T14:15:30.230Z,13.52
2022-11-19T14:18:26.995Z,14.82
2022-11-19T14:21:12.295Z,13.40
2022-11-19T14:24:08.738Z,13.13
2022-11-19T14:26:41.384Z,16.37
2022-11-19T14:29:27.681Z,16.20
2022-11-19T14:32:00.230Z,15.05
2022-11-19T14:34:29.620Z,16.02
2022-11-19T14:36:58.637Z,14.07
2022-11-19T14:39:31.314Z,14.50
2022-11-19T14:42:18.613Z,13.82
2022-11-19T14:44:46.809Z,13.48
2022-11-19T14:47:22.279Z,15.27
2022-11-19T14:49:50.686Z,14.30
2022-11-19T14:52:22.697Z,14.67
2022-11-19T14:54:58.522Z,15.02
2022-11-19T14:57:37.547Z,15.75
2022-11-19T15:00:30.244Z,14.63
2022-11-19T15:02:57.104Z,15.18
2022-11-19T15:05:28.012Z,16.10
2022-11-19T15:08:19.231Z,14.98
2022-11-19T15:11:02.376Z,18.05
2022-11-19T15:13:31.345Z,25.63
2022-11-19T15:16:19.834Z,19.60
2022-11-19T15:18:46.093Z,19.63
2022-11-19T15:21:33.753Z,17.30
2022-11-19T15:24:24.817Z,16.92
2022-11-19T15:27:15.509Z,19.15
2022-11-19T15:29:59.585Z,18.92
2022-11-19T15:32:52.281Z,27.07
2022-11-19T15:35:52.363Z,18.80
2022-11-19T15:38:21.713Z,17.67
2022-11-19T15:40:56.416Z,17.10
2022-11-19T15:43:28.812Z,18.00
2022-11-19T15:46:01.360Z,15.00
2022-11-19T15:48:33.453Z,14.32
2022-11-19T15:51:00.941Z,15.85
2022-11-19T15:53:28.116Z,14.77
2022-11-19T15:56:00.536Z,15.52
2022-11-19T15:58:40.378Z,16.77
2022-11-19T16:01:09.099Z,17.90
2022-11-19T16:03:39.128Z,16.25
2022-11-19T16:06:09.928Z,29.30
2022-11-19T16:08:37.461Z,14.02
2022-11-19T16:11:23.339Z,13.53
2022-11-19T16:14:10.657Z,13.95
2022-11-19T16:16:55.711Z,13.35
2022-11-19T16:19:22.433Z,12.38
2022-11-19T16:22:01.827Z,13.68
2022-11-19T16:24:48.132Z,13.00
2022-11-19T16:27:24.088Z,13.07
2022-11-19T16:29:51.179Z,12.77
2022-11-19T16:32:19.385Z,13.10
2022-11-19T16:34:46.613Z,12.52
2022-11-19T16:37:14.533Z,12.90
2022-11-19T16:39:42.995Z,13.18
2022-11-19T16:42:19.180Z,15.10
2022-11-19T16:44:48.101Z,14.50
2022-11-19T16:47:38.946Z,13.50
2022-11-19T16:50:42.339Z,11.90
2022-11-19T16:53:11.705Z,13.63
2022-11-19T16:55:40.312Z,14.98
2022-11-19T16:58:09.690Z,16.35
2022-11-19T17:00:37.148Z,16.15
2022-11-19T17:03:18.371Z,14.17
2022-11-19T17:05:47.319Z,14.45
2022-11-19T17:08:34.064Z,13.40
2022-11-19T17:11:37.547Z,13.80
2022-11-19T17:14:18.493Z,15.27
2022-11-19T17:16:47.198Z,16.97
2022-11-19T17:19:32.993Z,17.13
2022-11-19T17:22:23.303Z,19.00
2022-11-19T17:24:50.607Z,16.02
2022-11-19T17:27:33.570Z,17.10
2022-11-19T17:30:10.133Z,17.60
2022-11-19T17:32:47.745Z,18.20
2022-11-19T17:35:33.406Z,16.27
2022-11-19T17:38:08.023Z,14.30
2022-11-19T17:40:34.775Z,14.55
2022-11-19T17:43:19.548Z,12.57
2022-11-19T17:45:45.863Z,13.90
2022-11-19T17:48:21.496Z,13.18
2022-11-19T17:50:47.797Z,12.32
2022-11-19T17:53:14.069Z,12.40
2022-11-19T17:55:42.903Z,11.80
2022-11-19T17:58:09.583Z,12.77
2022-11-19T18:00:35.866Z,14.57
2022-11-19T18:03:03.332Z,13.52
2022-11-19T18:05:33.650Z,12.50
2022-11-19T18:08:00.048Z,12.33
2022-11-19T18:10:26.329Z,11.38
2022-11-19T18:12:52.751Z,11.48
2022-11-19T18:15:20.731Z,11.43
2022-11-19T18:17:47.038Z,12.18
2022-11-19T18:20:13.811Z,12.68
2022-11-19T18:22:40.374Z,16.55
2022-11-19T18:25:14.723Z,16.75
2022-11-19T18:27:41.097Z,14.45
2022-11-19T18:30:08.005Z,13.55
2022-11-19T18:32:34.304Z,10.83
2022-11-19T18:35:01.875Z,10.70
2022-11-19T18:37:29.229Z,9.27
2022-11-19T18:39:55.605Z,11.52
2022-11-19T18:42:21.977Z,11.23
2022-11-19T18:44:48.368Z,11.23
2022-11-19T18:47:15.052Z,11.27
2022-11-19T18:49:41.798Z,10.98
2022-11-19T18:52:12.462Z,11.30
2022-11-19T18:54:38.743Z,11.30
2022-11-19T18:57:05.038Z,11.33
2022-11-19T18:59:31.475Z,10.85
2022-11-19T19:01:58.146Z,10.95
2022-11-19T19:04:24.525Z,11.27
2022-11-19T19:06:50.902Z,11.55
2022-11-19T19:09:20.238Z,14.17
2022-11-19T19:12:13.587Z,11.25
2022-11-19T19:14:41.390Z,14.02
2022-11-19T19:17:07.788Z,17.42
2022-11-19T19:19:34.159Z,13.40
2022-11-19T19:22:00.505Z,13.80
2022-11-19T19:24:27.021Z,13.15
2022-11-19T19:26:53.479Z,12.85
2022-11-19T19:29:20.198Z,15.77
2022-11-19T19:31:46.730Z,17.02
2022-11-19T19:34:13.065Z,11.03
2022-11-19T19:36:39.340Z,13.52
2022-11-19T19:39:05.678Z,15.05
2022-11-19T19:41:32.093Z,13.88
2022-11-19T19:44:00.857Z,14.85
2022-11-19T19:46:27.123Z,14.57
2022-11-19T19:48:54.856Z,13.18
2022-11-19T19:51:23.482Z,11.48
2022-11-19T19:53:50.768Z,10.75
2022-11-19T19:56:23.209Z,10.93
2022-11-19T19:58:53.444Z,13.33
2022-11-19T20:01:22.576Z,13.13
2022-11-19T20:03:54.132Z,12.20
2022-11-19T20:06:23.066Z,12.05
2022-11-19T20:08:49.436Z,10.73
2022-11-19T20:11:18.313Z,10.57
2022-11-19T20:13:44.652Z,11.57
2022-11-19T20:16:18.392Z,11.40
2022-11-19T20:18:47.230Z,10.73
2022-11-19T20:21:16.697Z,10.75
2022-11-19T20:23:43.475Z,17.47
2022-11-19T20:26:15.664Z,14.13
2022-11-19T20:28:42.410Z,14.25
2022-11-19T20:31:15.765Z,11.40
2022-11-19T20:33:43.713Z,10.52
2022-11-19T20:36:11.978Z,11.67
2022-11-19T20:38:43.309Z,10.48
2022-11-19T20:41:31.672Z,10.35
2022-11-19T20:44:17.345Z,11.38
2022-11-19T20:46:44.134Z,12.20
2022-11-19T20:49:16.941Z,10.83
2022-11-19T20:51:44.315Z,14.38
2022-11-19T20:54:10.946Z,12.73
2022-11-19T20:56:38.054Z,12.25
2022-11-19T20:59:05.539Z,10.80
2022-11-19T21:01:32.292Z,11.87
2022-11-19T21:03:58.936Z,11.50
2022-11-19T21:06:25.550Z,11.32
2022-11-19T21:08:51.900Z,10.27
2022-11-19T21:11:18.712Z,10.20
2022-11-19T21:13:44.991Z,11.07
2022-11-19T21:16:14.406Z,10.63
2022-11-19T21:18:42.609Z,12.88
2022-11-19T21:21:10.817Z,12.20
2022-11-19T21:23:38.100Z,11.52
2022-11-19T21:26:09.364Z,11.97
2022-11-19T21:28:36.129Z,10.82
2022-11-19T21:31:03.328Z,12.00
2022-11-19T21:33:29.876Z,11.32
2022-11-19T21:35:57.312Z,11.82
2022-11-19T21:38:24.680Z,11.37
2022-11-19T21:40:53.073Z,11.07
2022-11-19T21:43:20.634Z,11.57
2022-11-19T21:45:48.767Z,12.77
2022-11-19T21:48:16.284Z,11.75
2022-11-19T21:50:42.869Z,11.37
2022-11-19T21:53:10.902Z,10.18
2022-11-19T21:55:37.482Z,10.52
2022-11-19T21:58:05.370Z,10.57
2022-11-19T22:00:32.628Z,11.02
2022-11-19T22:02:59.165Z,11.23
2022-11-19T22:05:26.740Z,11.18
2022-11-19T22:07:53.805Z,11.35
2022-11-19T22:10:20.952Z,12.35
2022-11-19T22:12:47.238Z,13.13
2022-11-19T22:15:13.522Z,12.13
2022-11-19T22:17:40.056Z,13.52
2022-11-19T22:20:06.812Z,13.88
2022-11-19T22:22:33.096Z,13.88
2022-11-19T22:24:59.555Z,13.77
2022-11-19T22:27:28.134Z,14.17
2022-11-19T22:29:56.521Z,14.65
2022-11-19T22:32:23.033Z,15.32
2022-11-19T22:34:49.297Z,16.50
2022-11-19T22:37:15.562Z,11.70
2022-11-19T22:39:43.737Z,12.83
2022-11-19T22:42:10.201Z,12.98
2022-11-19T22:44:36.483Z,13.68
2022-11-19T22:47:02.776Z,13.27
2022-11-19T22:49:29.075Z,13.05
2022-11-19T22:51:55.406Z,12.90
2022-11-19T22:54:21.889Z,14.07
2022-11-19T22:56:48.222Z,11.90
2022-11-19T22:59:14.498Z,11.73
2022-11-19T23:01:40.787Z,10.65
2022-11-19T23:04:07.962Z,12.00
2022-11-19T23:06:36.030Z,11.93
2022-11-19T23:09:04.833Z,11.60
2022-11-19T23:11:49.789Z,12.57
2022-11-19T23:14:17.955Z,11.85
2022-11-19T23:16:45.025Z,12.37
2022-11-19T23:19:12.588Z,11.82
2022-11-19T23:21:39.975Z,11.88
2022-11-19T23:24:06.594Z,10.43
2022-11-19T23:26:34.083Z,11.18
2022-11-19T23:29:00.892Z,10.30
2022-11-19T23:31:32.396Z,11.30
2022-11-19T23:33:59.715Z,10.75
2022-11-19T23:36:29.222Z,11.13
2022-11-19T23:38:55.758Z,11.65
2022-11-19T23:41:22.967Z,10.73
2022-11-19T23:43:51.069Z,11.10
2022-11-19T23:46:20.017Z,11.00
2022-11-19T23:48:48.048Z,10.40
2022-11-19T23:51:19.914Z,11.45
2022-11-19T23:53:46.895Z,12.50
2022-11-19T23:56:14.409Z,12.90
2022-11-19T23:58:41.489Z,14.13
